WMT9GR LICC-LIPZ
Flight info
| Callsign | WMT9GR |
|---|---|
| Flight time | N/A |
| Altitude | 36000 |
| Route | BUDIN DCT NAXES DCT TEA DCT LANLI/N0340F180 L612 ARDAM Z456 OTGIG |
| Aircraft | A21N/M-SDE1E2E3FGIJ1J4RWXY/LB1 |
Departure
| Time | 2026-04-29 14:45 |
|---|---|
| Airport | Catania-Fontanarossa Airport (LICC) |
Arrival
| Time | N/A |
|---|---|
| Airport | Venice Marco Polo Airport (LIPZ) |
| Time | Latitude | Longitude | Altitude | Speed | Heading |
|---|---|---|---|---|---|
| 2026-04-29 14:21 | 37.46947 | 15.06527 | 31 ft | 0 kts | 19° |
| 2026-04-29 14:38 | 37.46942 | 15.06525 | 32 ft | 4 kts | 19° |
| 2026-04-29 14:38 | 37.46918 | 15.06514 | 32 ft | 4 kts | 16° |
| 2026-04-29 14:38 | 37.46892 | 15.06505 | 31 ft | 4 kts | 17° |
| 2026-04-29 14:39 | 37.46869 | 15.06495 | 31 ft | 4 kts | 6° |
| 2026-04-29 14:39 | 37.46848 | 15.06498 | 30 ft | 4 kts | 302° |
| 2026-04-29 14:39 | 37.46838 | 15.06527 | 32 ft | 4 kts | 275° |
| 2026-04-29 14:39 | 37.46837 | 15.06554 | 32 ft | 0 kts | 264° |
| 2026-04-29 14:42 | 37.46834 | 15.06523 | 31 ft | 13 kts | 264° |
| 2026-04-29 14:42 | 37.46820 | 15.06344 | 32 ft | 21 kts | 264° |
| 2026-04-29 14:43 | 37.46804 | 15.06171 | 32 ft | 19 kts | 263° |
| 2026-04-29 14:43 | 37.46791 | 15.06007 | 32 ft | 19 kts | 264° |
| 2026-04-29 14:43 | 37.46777 | 15.05832 | 32 ft | 21 kts | 264° |
| 2026-04-29 14:43 | 37.46762 | 15.05649 | 32 ft | 22 kts | 265° |
| 2026-04-29 14:44 | 37.46745 | 15.05457 | 32 ft | 23 kts | 262° |
| 2026-04-29 14:44 | 37.46704 | 15.05293 | 32 ft | 15 kts | 221° |
| 2026-04-29 14:44 | 37.46610 | 15.05204 | 35 ft | 14 kts | 185° |
| 2026-04-29 14:44 | 37.46567 | 15.05317 | 35 ft | 32 kts | 84° |
| 2026-04-29 14:45 | 37.46621 | 15.05945 | 36 ft | 112 kts | 84° |
| 2026-04-29 14:45 | 37.46718 | 15.07231 | 143 ft | 176 kts | 85° |
| 2026-04-29 14:45 | 37.46830 | 15.08847 | 1083 ft | 185 kts | 85° |
| 2026-04-29 14:45 | 37.47036 | 15.10450 | 2281 ft | 190 kts | 85° |
| 2026-04-29 14:46 | 37.47271 | 15.12204 | 2816 ft | 220 kts | 85° |
| 2026-04-29 14:46 | 37.47526 | 15.14237 | 3349 ft | 245 kts | 84° |
| 2026-04-29 14:46 | 37.47811 | 15.16413 | 4196 ft | 259 kts | 83° |
| 2026-04-29 14:46 | 37.48125 | 15.18705 | 5129 ft | 270 kts | 83° |
| 2026-04-29 14:47 | 37.48456 | 15.21051 | 6223 ft | 274 kts | 82° |
| 2026-04-29 14:47 | 37.48797 | 15.23432 | 7206 ft | 280 kts | 82° |
| 2026-04-29 14:47 | 37.49273 | 15.25840 | 8091 ft | 288 kts | 66° |
| 2026-04-29 14:47 | 37.49976 | 15.27263 | 8706 ft | 291 kts | 51° |
| 2026-04-29 14:48 | 37.51891 | 15.29689 | 10062 ft | 295 kts | 42° |
| 2026-04-29 14:48 | 37.53503 | 15.31382 | 10704 ft | 312 kts | 39° |
| 2026-04-29 14:48 | 37.55299 | 15.33081 | 11182 ft | 333 kts | 36° |
| 2026-04-29 14:48 | 37.57253 | 15.34797 | 11738 ft | 351 kts | 34° |
| 2026-04-29 14:49 | 37.59334 | 15.36538 | 12358 ft | 368 kts | 33° |
| 2026-04-29 14:49 | 37.61531 | 15.38319 | 13009 ft | 382 kts | 32° |
| 2026-04-29 14:49 | 37.63820 | 15.40138 | 13690 ft | 396 kts | 32° |
| 2026-04-29 14:49 | 37.66181 | 15.41988 | 14513 ft | 401 kts | 31° |
| 2026-04-29 14:50 | 37.68577 | 15.43826 | 15373 ft | 405 kts | 28° |
| 2026-04-29 14:50 | 37.71110 | 15.45007 | 16147 ft | 406 kts | 10° |
| 2026-04-29 14:50 | 37.73116 | 15.45212 | 16733 ft | 406 kts | 356° |
| 2026-04-29 14:50 | 37.75844 | 15.44564 | 17553 ft | 406 kts | 342° |
| 2026-04-29 14:51 | 37.78528 | 15.43387 | 18400 ft | 410 kts | 339° |
| 2026-04-29 14:51 | 37.81195 | 15.42078 | 19098 ft | 414 kts | 338° |
| 2026-04-29 14:51 | 37.83878 | 15.40709 | 19835 ft | 417 kts | 337° |
| 2026-04-29 14:51 | 37.86576 | 15.39313 | 20560 ft | 421 kts | 337° |
| 2026-04-29 14:52 | 37.88528 | 15.38299 | 21077 ft | 424 kts | 337° |
| 2026-04-29 14:52 | 37.91267 | 15.36878 | 21787 ft | 427 kts | 337° |
| 2026-04-29 14:52 | 37.94033 | 15.35445 | 22496 ft | 431 kts | 334° |
| 2026-04-29 14:52 | 37.96807 | 15.33978 | 23232 ft | 434 kts | 334° |
| 2026-04-29 14:53 | 37.99613 | 15.32495 | 23897 ft | 438 kts | 335° |
| 2026-04-29 14:53 | 38.02444 | 15.31026 | 24494 ft | 442 kts | 335° |
| 2026-04-29 14:53 | 38.05308 | 15.29555 | 25075 ft | 446 kts | 335° |
| 2026-04-29 14:53 | 38.08199 | 15.28078 | 25659 ft | 450 kts | 335° |
| 2026-04-29 14:54 | 38.11111 | 15.26590 | 26207 ft | 453 kts | 335° |
| 2026-04-29 14:54 | 38.14050 | 15.25097 | 26887 ft | 454 kts | 335° |
| 2026-04-29 14:54 | 38.16980 | 15.23615 | 27743 ft | 452 kts | 335° |
| 2026-04-29 14:54 | 38.19892 | 15.22142 | 28571 ft | 450 kts | 335° |
| 2026-04-29 14:55 | 38.22794 | 15.20672 | 29380 ft | 448 kts | 335° |
| 2026-04-29 14:55 | 38.25679 | 15.19210 | 30190 ft | 446 kts | 335° |
| 2026-04-29 14:55 | 38.28557 | 15.17752 | 30865 ft | 444 kts | 335° |
| 2026-04-29 14:55 | 38.31421 | 15.16301 | 31521 ft | 442 kts | 334° |
| 2026-04-29 14:56 | 38.34270 | 15.14856 | 32164 ft | 441 kts | 334° |
| 2026-04-29 14:56 | 38.37119 | 15.13407 | 32798 ft | 439 kts | 334° |
| 2026-04-29 14:56 | 38.39946 | 15.11966 | 33416 ft | 438 kts | 334° |
| 2026-04-29 14:56 | 38.42777 | 15.10518 | 34011 ft | 437 kts | 334° |
| 2026-04-29 14:57 | 38.45613 | 15.09106 | 34517 ft | 437 kts | 335° |
| 2026-04-29 14:57 | 38.48441 | 15.07801 | 35316 ft | 422 kts | 335° |
| 2026-04-29 14:57 | 38.51141 | 15.06609 | 35540 ft | 395 kts | 336° |
| 2026-04-29 14:57 | 38.52831 | 15.05877 | 35617 ft | 380 kts | 336° |
| 2026-04-29 14:58 | 38.55248 | 15.04842 | 35781 ft | 355 kts | 335° |
| 2026-04-29 14:58 | 38.57490 | 15.03887 | 35890 ft | 327 kts | 335° |
| 2026-04-29 14:58 | 38.59582 | 15.02994 | 35658 ft | 310 kts | 334° |
| 2026-04-29 14:58 | 38.61630 | 15.02099 | 34763 ft | 315 kts | 334° |
| 2026-04-29 14:59 | 38.63746 | 15.01150 | 33612 ft | 328 kts | 335° |
| 2026-04-29 14:59 | 38.65905 | 15.00183 | 32861 ft | 326 kts | 335° |
| 2026-04-29 14:59 | 38.67990 | 14.99268 | 32617 ft | 309 kts | 335° |
| 2026-04-29 14:59 | 38.70054 | 14.98364 | 32438 ft | 319 kts | 335° |
| 2026-04-29 15:00 | 38.72186 | 14.97423 | 32390 ft | 328 kts | 335° |
| 2026-04-29 15:00 | 38.76633 | 14.95462 | 32445 ft | 349 kts | 336° |
| 2026-04-29 15:00 | 38.78974 | 14.94431 | 32470 ft | 362 kts | 336° |
| 2026-04-29 15:01 | 38.81402 | 14.93363 | 32503 ft | 376 kts | 336° |
| 2026-04-29 15:01 | 38.83924 | 14.92255 | 32509 ft | 391 kts | 336° |
| 2026-04-29 15:01 | 38.86550 | 14.91103 | 32528 ft | 406 kts | 336° |
| 2026-04-29 15:01 | 38.89272 | 14.89909 | 32539 ft | 422 kts | 337° |
| 2026-04-29 15:02 | 38.92103 | 14.88669 | 32553 ft | 438 kts | 337° |
| 2026-04-29 15:02 | 38.95033 | 14.87384 | 32581 ft | 453 kts | 337° |
| 2026-04-29 15:02 | 38.98040 | 14.86070 | 33089 ft | 456 kts | 337° |
| 2026-04-29 15:02 | 39.01036 | 14.84770 | 33912 ft | 453 kts | 337° |
| 2026-04-29 15:03 | 39.04023 | 14.83476 | 34520 ft | 452 kts | 337° |
| 2026-04-29 15:03 | 39.06956 | 14.82202 | 35030 ft | 451 kts | 337° |
| 2026-04-29 15:03 | 39.09920 | 14.80913 | 35511 ft | 449 kts | 337° |
| 2026-04-29 15:03 | 39.12844 | 14.79641 | 35799 ft | 442 kts | 337° |
| 2026-04-29 15:04 | 39.15782 | 14.78355 | 35926 ft | 448 kts | 336° |
| 2026-04-29 15:04 | 39.21821 | 14.75691 | 36005 ft | 469 kts | 337° |
| 2026-04-29 15:05 | 39.28023 | 14.72952 | 36018 ft | 471 kts | 337° |
| 2026-04-29 15:05 | 39.34196 | 14.70230 | 36017 ft | 466 kts | 337° |
| 2026-04-29 15:06 | 39.40320 | 14.67525 | 36021 ft | 465 kts | 337° |
| 2026-04-29 15:06 | 39.46461 | 14.64802 | 36020 ft | 468 kts | 337° |
| 2026-04-29 15:07 | 39.52610 | 14.62070 | 36020 ft | 466 kts | 337° |
| 2026-04-29 15:07 | 39.58745 | 14.59341 | 36024 ft | 467 kts | 337° |
| 2026-04-29 15:08 | 39.64899 | 14.56595 | 36024 ft | 469 kts | 337° |
| 2026-04-29 15:08 | 39.71060 | 14.53841 | 36022 ft | 468 kts | 337° |
| 2026-04-29 15:09 | 39.77209 | 14.51089 | 36030 ft | 467 kts | 337° |
| 2026-04-29 15:09 | 39.83368 | 14.48324 | 36028 ft | 469 kts | 337° |
| 2026-04-29 15:10 | 39.89606 | 14.45768 | 36029 ft | 470 kts | 340° |
| 2026-04-29 15:10 | 39.95916 | 14.43519 | 36026 ft | 470 kts | 341° |
| 2026-04-29 15:11 | 40.02245 | 14.41337 | 36027 ft | 472 kts | 341° |
| 2026-04-29 15:11 | 40.08605 | 14.39160 | 36027 ft | 472 kts | 342° |
| 2026-04-29 15:12 | 40.14948 | 14.36992 | 36027 ft | 471 kts | 342° |
| 2026-04-29 15:12 | 40.20681 | 14.35030 | 36028 ft | 472 kts | 342° |
| 2026-04-29 15:13 | 40.26894 | 14.32900 | 36030 ft | 472 kts | 342° |
| 2026-04-29 15:13 | 40.33240 | 14.30721 | 36031 ft | 471 kts | 342° |
| 2026-04-29 15:14 | 40.39575 | 14.28542 | 36035 ft | 472 kts | 342° |
| 2026-04-29 15:14 | 40.45939 | 14.26347 | 36032 ft | 472 kts | 342° |
| 2026-04-29 15:15 | 40.52174 | 14.24194 | 36031 ft | 471 kts | 342° |
| 2026-04-29 15:15 | 40.58634 | 14.21959 | 36035 ft | 472 kts | 342° |
| 2026-04-29 15:16 | 40.64945 | 14.19771 | 36044 ft | 472 kts | 342° |
| 2026-04-29 15:16 | 40.71290 | 14.17566 | 36049 ft | 471 kts | 342° |
| 2026-04-29 15:17 | 40.77678 | 14.15343 | 36045 ft | 472 kts | 342° |
| 2026-04-29 15:17 | 40.83992 | 14.13140 | 36056 ft | 472 kts | 342° |
| 2026-04-29 15:18 | 40.90372 | 14.10911 | 36043 ft | 471 kts | 342° |
| 2026-04-29 15:18 | 40.96664 | 14.08707 | 36051 ft | 472 kts | 342° |
| 2026-04-29 15:19 | 41.03016 | 14.06477 | 36052 ft | 472 kts | 342° |
| 2026-04-29 15:19 | 41.09364 | 14.04245 | 36057 ft | 471 kts | 342° |
| 2026-04-29 15:20 | 41.15689 | 14.02017 | 36053 ft | 471 kts | 342° |
| 2026-04-29 15:20 | 41.22043 | 13.99772 | 36046 ft | 472 kts | 342° |
| 2026-04-29 15:21 | 41.28436 | 13.97574 | 36044 ft | 471 kts | 343° |
| 2026-04-29 15:21 | 41.34830 | 13.95645 | 36038 ft | 472 kts | 344° |
| 2026-04-29 15:22 | 41.41208 | 13.93798 | 36030 ft | 473 kts | 344° |
| 2026-04-29 15:22 | 41.47688 | 13.91939 | 36029 ft | 472 kts | 344° |
| 2026-04-29 15:23 | 41.54057 | 13.90117 | 36029 ft | 471 kts | 344° |
| 2026-04-29 15:23 | 41.60473 | 13.88275 | 36029 ft | 472 kts | 344° |
| 2026-04-29 15:24 | 41.66888 | 13.86434 | 36025 ft | 471 kts | 344° |
| 2026-04-29 15:24 | 41.73301 | 13.84587 | 36028 ft | 471 kts | 344° |
| 2026-04-29 15:25 | 41.79709 | 13.82737 | 36027 ft | 471 kts | 344° |
| 2026-04-29 15:25 | 41.86100 | 13.80887 | 36018 ft | 470 kts | 344° |
| 2026-04-29 15:26 | 41.92498 | 13.79034 | 36029 ft | 471 kts | 344° |
| 2026-04-29 15:26 | 41.98913 | 13.77171 | 36021 ft | 470 kts | 344° |
| 2026-04-29 15:27 | 42.05292 | 13.75316 | 36023 ft | 469 kts | 344° |
| 2026-04-29 15:27 | 42.11678 | 13.73453 | 36022 ft | 470 kts | 344° |
| 2026-04-29 15:28 | 42.18075 | 13.71586 | 36024 ft | 470 kts | 344° |
| 2026-04-29 15:28 | 42.24458 | 13.69717 | 36023 ft | 469 kts | 344° |
| 2026-04-29 15:29 | 42.30840 | 13.67844 | 36026 ft | 470 kts | 344° |
| 2026-04-29 15:30 | 42.43611 | 13.64084 | 36020 ft | 468 kts | 344° |
| 2026-04-29 15:30 | 42.49944 | 13.62215 | 36023 ft | 470 kts | 344° |
| 2026-04-29 15:31 | 42.56325 | 13.60323 | 36009 ft | 468 kts | 344° |
| 2026-04-29 15:31 | 42.62703 | 13.58438 | 36023 ft | 470 kts | 344° |
| 2026-04-29 15:32 | 42.69082 | 13.56543 | 36031 ft | 469 kts | 344° |
| 2026-04-29 15:32 | 42.75456 | 13.54645 | 36031 ft | 469 kts | 344° |
| 2026-04-29 15:33 | 42.81835 | 13.52742 | 36024 ft | 469 kts | 344° |
| 2026-04-29 15:33 | 42.88191 | 13.50843 | 36023 ft | 468 kts | 343° |
| 2026-04-29 15:34 | 42.94560 | 13.48933 | 36029 ft | 469 kts | 343° |
| 2026-04-29 15:34 | 43.00935 | 13.47017 | 36024 ft | 468 kts | 343° |
| 2026-04-29 15:35 | 43.07287 | 13.45105 | 36027 ft | 467 kts | 343° |
| 2026-04-29 15:35 | 43.13638 | 13.43190 | 36032 ft | 468 kts | 343° |
| 2026-04-29 15:36 | 43.19989 | 13.41269 | 36026 ft | 466 kts | 343° |
| 2026-04-29 15:36 | 43.26323 | 13.39352 | 36024 ft | 467 kts | 343° |
| 2026-04-29 15:37 | 43.32671 | 13.37425 | 36034 ft | 467 kts | 343° |
| 2026-04-29 15:37 | 43.38817 | 13.34785 | 36040 ft | 460 kts | 334° |
| 2026-04-29 15:38 | 43.44697 | 13.31312 | 36040 ft | 460 kts | 333° |
| 2026-04-29 15:38 | 43.50560 | 13.27751 | 36047 ft | 461 kts | 333° |
| 2026-04-29 15:39 | 43.56430 | 13.24198 | 36048 ft | 460 kts | 333° |
| 2026-04-29 15:39 | 43.62295 | 13.20680 | 36048 ft | 459 kts | 333° |
| 2026-04-29 15:40 | 43.68128 | 13.17205 | 36045 ft | 461 kts | 333° |
| 2026-04-29 15:40 | 43.74051 | 13.13695 | 36043 ft | 460 kts | 333° |
| 2026-04-29 15:41 | 43.79674 | 13.09816 | 36051 ft | 454 kts | 322° |
| 2026-04-29 15:41 | 43.82289 | 13.07231 | 35538 ft | 458 kts | 320° |
| 2026-04-29 15:41 | 43.84819 | 13.04590 | 34990 ft | 450 kts | 320° |
| 2026-04-29 15:41 | 43.87249 | 13.02010 | 34489 ft | 441 kts | 320° |
| 2026-04-29 15:42 | 43.89660 | 12.99434 | 33983 ft | 435 kts | 320° |
| 2026-04-29 15:42 | 43.92054 | 12.96874 | 33415 ft | 442 kts | 320° |
| 2026-04-29 15:42 | 43.94547 | 12.94209 | 32852 ft | 458 kts | 320° |
| 2026-04-29 15:42 | 43.97073 | 12.91528 | 32288 ft | 456 kts | 320° |
| 2026-04-29 15:43 | 43.99588 | 12.88878 | 31749 ft | 453 kts | 321° |
| 2026-04-29 15:43 | 44.02098 | 12.86245 | 31221 ft | 453 kts | 321° |
| 2026-04-29 15:43 | 44.04622 | 12.83606 | 30703 ft | 457 kts | 321° |
| 2026-04-29 15:43 | 44.07179 | 12.80939 | 30195 ft | 459 kts | 321° |
| 2026-04-29 15:44 | 44.09734 | 12.78282 | 29615 ft | 460 kts | 321° |
| 2026-04-29 15:44 | 44.12302 | 12.75619 | 29034 ft | 461 kts | 321° |
| 2026-04-29 15:44 | 44.14876 | 12.72952 | 28456 ft | 463 kts | 321° |
| 2026-04-29 15:44 | 44.16620 | 12.71147 | 28078 ft | 464 kts | 321° |
| 2026-04-29 15:45 | 44.19211 | 12.68466 | 27522 ft | 466 kts | 321° |
| 2026-04-29 15:45 | 44.20945 | 12.66672 | 27159 ft | 466 kts | 321° |
| 2026-04-29 15:45 | 44.23679 | 12.64144 | 26575 ft | 471 kts | 331° |
| 2026-04-29 15:45 | 44.26703 | 12.62457 | 26004 ft | 474 kts | 338° |
| 2026-04-29 15:46 | 44.29819 | 12.61044 | 25417 ft | 466 kts | 340° |
| 2026-04-29 15:46 | 44.32893 | 12.59736 | 24877 ft | 459 kts | 341° |
| 2026-04-29 15:46 | 44.35950 | 12.58458 | 24344 ft | 458 kts | 341° |
| 2026-04-29 15:46 | 44.38998 | 12.57180 | 23816 ft | 454 kts | 341° |
| 2026-04-29 15:47 | 44.42005 | 12.55904 | 23249 ft | 450 kts | 340° |
| 2026-04-29 15:47 | 44.44982 | 12.54622 | 22663 ft | 447 kts | 340° |
| 2026-04-29 15:47 | 44.47943 | 12.53329 | 22087 ft | 444 kts | 340° |
| 2026-04-29 15:47 | 44.50871 | 12.52032 | 21545 ft | 439 kts | 340° |
| 2026-04-29 15:48 | 44.53770 | 12.50732 | 21012 ft | 436 kts | 340° |
| 2026-04-29 15:48 | 44.56646 | 12.49428 | 20489 ft | 434 kts | 339° |
| 2026-04-29 15:48 | 44.59504 | 12.48120 | 19998 ft | 431 kts | 339° |
| 2026-04-29 15:48 | 44.62350 | 12.46807 | 19513 ft | 429 kts | 339° |
| 2026-04-29 15:49 | 44.65174 | 12.45494 | 19040 ft | 426 kts | 339° |
| 2026-04-29 15:49 | 44.67980 | 12.44179 | 18568 ft | 424 kts | 339° |
| 2026-04-29 15:49 | 44.70767 | 12.42867 | 18072 ft | 421 kts | 339° |
| 2026-04-29 15:49 | 44.73534 | 12.41558 | 17568 ft | 419 kts | 339° |
| 2026-04-29 15:50 | 44.76288 | 12.40249 | 17074 ft | 416 kts | 339° |
| 2026-04-29 15:50 | 44.79015 | 12.38948 | 16585 ft | 413 kts | 339° |
| 2026-04-29 15:50 | 44.81723 | 12.37653 | 16134 ft | 410 kts | 339° |
| 2026-04-29 15:50 | 44.84410 | 12.36372 | 15700 ft | 407 kts | 339° |
| 2026-04-29 15:51 | 44.87083 | 12.35094 | 15265 ft | 404 kts | 339° |
| 2026-04-29 15:51 | 44.89733 | 12.33825 | 14837 ft | 401 kts | 339° |
| 2026-04-29 15:51 | 44.92363 | 12.32561 | 14436 ft | 399 kts | 339° |
| 2026-04-29 15:51 | 44.94982 | 12.31297 | 14036 ft | 396 kts | 339° |
| 2026-04-29 15:52 | 44.97578 | 12.30043 | 13609 ft | 395 kts | 339° |
| 2026-04-29 15:52 | 45.00170 | 12.28792 | 13175 ft | 391 kts | 339° |
| 2026-04-29 15:52 | 45.02737 | 12.27551 | 12773 ft | 390 kts | 339° |
| 2026-04-29 15:52 | 45.05301 | 12.26314 | 12371 ft | 388 kts | 339° |
| 2026-04-29 15:53 | 45.07852 | 12.25087 | 12008 ft | 387 kts | 339° |